Time;durP1;ratioP1;P1;durP2;ratioP2;P2;SDS_P1;SDS_P2;PMS_P1;PMS_P2;Temp;Humidity;BMP_temperature;BMP_pressure;BME280_temperature;BME280_humidity;BME280_pressure;Samples;Min_cycle;Max_cycle;Signal;HPM_P1;HPM_P2
2023/07/21 00:07:20;;;;;;;0.77;0.60;;;;;;;20.60;74.98;100968.31;20257532;29;20060;-66
2023/07/21 00:17:22;;;;;;;0.98;0.73;;;;;;;20.55;75.10;100969.63;20256931;29;20084;-66
2023/07/21 00:27:24;;;;;;;0.63;0.63;;;;;;;20.54;74.65;100954.34;20239576;29;20060;-66
2023/07/21 00:37:26;;;;;;;1.10;0.68;;;;;;;20.54;75.51;100951.66;20254319;29;20060;-65
2023/07/21 00:47:29;;;;;;;1.20;0.90;;;;;;;20.52;74.65;100939.31;20252831;29;20078;-65
2023/07/21 00:57:32;;;;;;;1.15;0.80;;;;;;;20.50;74.43;100927.78;20253979;29;20057;-66
2023/07/21 01:07:34;;;;;;;1.05;0.95;;;;;;;20.46;74.65;100923.69;20251881;29;20044;-65
2023/07/21 01:17:36;;;;;;;0.88;0.80;;;;;;;20.43;74.43;100911.31;20252588;29;20056;-65
2023/07/21 01:27:40;;;;;;;1.07;0.60;;;;;;;20.45;74.20;100913.88;20251974;29;20159;-66
2023/07/21 01:37:45;;;;;;;0.73;0.60;;;;;;;20.45;74.31;100900.38;20251562;29;20139;-65
2023/07/21 01:47:47;;;;;;;0.60;0.60;;;;;;;20.43;74.17;100890.56;20250016;29;20081;-66
2023/07/21 01:57:55;;;;;;;0.73;0.70;;;;;;;20.40;74.23;100888.16;20249778;29;20060;-65
2023/07/21 02:07:57;;;;;;;1.25;0.77;;;;;;;20.39;73.86;100877.47;20253099;29;20049;-66
2023/07/21 02:17:59;;;;;;;1.00;0.77;;;;;;;20.39;73.65;100883.75;20264935;29;20056;-65
2023/07/21 02:28:01;;;;;;;0.80;0.77;;;;;;;20.39;74.97;100880.19;20247523;29;20096;-65
2023/07/21 02:38:05;;;;;;;2.03;0.70;;;;;;;20.36;73.43;100870.53;20256614;29;20053;-65
2023/07/21 02:48:08;;;;;;;0.75;0.70;;;;;;;20.34;72.98;100863.56;20261563;29;20057;-65
2023/07/21 02:58:12;;;;;;;0.90;0.77;;;;;;;20.34;72.87;100863.56;20259551;29;20139;-65
2023/07/21 03:08:14;;;;;;;2.03;0.70;;;;;;;20.32;72.56;100844.78;20244878;29;20056;-65
2023/07/21 03:18:16;;;;;;;1.13;1.02;;;;;;;20.28;72.51;100844.25;20244033;29;20128;-65
2023/07/21 03:28:40;;;;;;;1.00;0.85;;;;;;;20.29;72.20;100845.09;20264776;29;20164;-65
2023/07/21 03:38:42;;;;;;;0.60;0.60;;;;;;;20.27;72.16;100847.09;20267762;29;20045;-65
2023/07/21 03:48:44;;;;;;;1.05;0.93;;;;;;;20.26;71.82;100845.41;20267175;29;20052;-65
2023/07/21 03:58:46;;;;;;;0.50;0.50;;;;;;;20.25;71.77;100843.72;20250639;29;20045;-65
2023/07/21 04:08:51;;;;;;;0.50;0.50;;;;;;;20.23;71.33;100829.50;20264213;29;20053;-65
2023/07/21 04:18:53;;;;;;;0.88;0.70;;;;;;;20.22;71.47;100834.06;20264733;29;20075;-65
2023/07/21 04:28:55;;;;;;;0.60;0.60;;;;;;;20.21;71.47;100839.63;20264142;29;20088;-65
2023/07/21 04:38:57;;;;;;;0.95;0.70;;;;;;;20.21;71.59;100834.22;20246531;29;20052;-64
2023/07/21 04:49:00;;;;;;;1.10;0.60;;;;;;;20.20;71.89;100835.22;20261505;29;20075;-65
2023/07/21 04:59:14;;;;;;;0.70;0.70;;;;;;;20.21;73.74;100832.38;20228606;29;20048;-65
2023/07/21 05:09:17;;;;;;;1.48;0.80;;;;;;;20.22;74.98;100811.56;20244373;29;20083;-65
2023/07/21 05:19:19;;;;;;;1.83;0.80;;;;;;;20.24;75.70;100814.97;20233901;29;20056;-65
2023/07/21 05:29:39;;;;;;;2.00;0.90;;;;;;;20.26;75.79;100829.19;20208953;29;20176;-65
2023/07/21 05:39:42;;;;;;;0.85;0.82;;;;;;;20.24;76.32;100820.38;20202731;29;20048;-65
2023/07/21 05:49:45;;;;;;;1.15;0.70;;;;;;;20.33;77.59;100834.84;20234966;29;20076;-65
2023/07/21 05:59:47;;;;;;;4.63;1.02;;;;;;;20.34;77.97;100831.13;20228367;29;20053;-66
2023/07/21 06:09:49;;;;;;;0.93;0.80;;;;;;;20.35;78.39;100822.88;20232212;29;20433;-64
2023/07/21 06:20:13;;;;;;;2.50;1.00;;;;;;;20.34;78.04;100810.38;20265833;29;20073;-65
2023/07/21 06:30:15;;;;;;;0.80;0.80;;;;;;;20.33;79.68;100814.06;20256028;29;20052;-64
2023/07/21 06:40:21;;;;;;;1.98;1.10;;;;;;;20.33;78.49;100808.66;20226676;29;20506;-65
2023/07/21 06:50:41;;;;;;;1.50;0.70;;;;;;;20.34;77.25;100804.97;20257494;29;20459;-65
2023/07/21 07:00:43;;;;;;;1.10;0.70;;;;;;;20.34;75.65;100804.97;20269261;29;20053;-65
2023/07/21 07:10:48;;;;;;;0.70;0.50;;;;;;;20.34;76.14;100804.97;20268928;29;20076;-65
2023/07/21 07:20:50;;;;;;;1.40;0.82;;;;;;;20.36;75.03;100802.09;20268193;29;20714;-65
2023/07/21 07:30:52;;;;;;;1.35;1.00;;;;;;;20.38;73.83;100797.38;20267089;29;20048;-65
2023/07/21 07:40:59;;;;;;;1.98;0.80;;;;;;;20.40;74.54;100776.44;20268049;29;20059;-65
2023/07/21 07:51:06;;;;;;;0.73;0.70;;;;;;;20.49;74.51;100788.19;20244914;29;20143;-65
2023/07/21 08:01:07;;;;;;;1.10;0.60;;;;;;;20.57;74.43;100788.22;20235101;29;20045;-64
2023/07/21 08:11:09;;;;;;;1.00;0.60;;;;;;;20.64;73.07;100781.19;20235948;29;20060;-65
2023/07/21 08:21:19;;;;;;;0.77;0.70;;;;;;;20.71;73.87;100774.13;20259965;29;20049;-64
2023/07/21 08:31:20;;;;;;;1.58;0.60;;;;;;;20.80;76.29;100764.25;20259530;29;20053;-64
2023/07/21 08:41:22;;;;;;;1.35;0.70;;;;;;;20.95;77.94;100769.94;20251137;29;20064;-64
2023/07/21 08:51:25;;;;;;;0.80;0.57;;;;;;;20.94;78.05;100741.19;20254699;29;20056;-65
2023/07/21 09:01:27;;;;;;;0.93;0.50;;;;;;;21.08;78.10;100758.69;20255057;29;20111;-64
2023/07/21 09:11:34;;;;;;;0.98;0.60;;;;;;;21.11;77.17;100754.78;20259295;29;20064;-65
2023/07/21 09:21:37;;;;;;;1.02;0.60;;;;;;;21.12;76.78;100754.66;20237059;29;20044;-65
2023/07/21 09:31:38;;;;;;;0.52;0.52;;;;;;;21.15;78.60;100746.19;20235546;29;20110;-65
2023/07/21 09:41:41;;;;;;;1.52;0.68;;;;;;;21.17;76.91;100746.00;20258471;29;20072;-65
2023/07/21 09:51:45;;;;;;;2.13;0.70;;;;;;;21.16;75.12;100744.31;20248867;29;20525;-65
2023/07/21 10:01:48;;;;;;;0.77;0.60;;;;;;;21.19;75.32;100732.34;20258086;29;20091;-65
2023/07/21 10:11:51;;;;;;;0.77;0.60;;;;;;;21.21;73.37;100720.34;20231154;29;20501;-65
2023/07/21 10:21:54;;;;;;;0.68;0.60;;;;;;;21.23;73.01;100722.88;20218248;29;20048;-64
2023/07/21 10:31:57;;;;;;;0.50;0.50;;;;;;;21.22;73.62;100732.88;20211854;29;20044;-65
2023/07/21 10:42:01;;;;;;;0.63;0.60;;;;;;;21.16;73.49;100717.25;20238521;29;20403;-64
2023/07/21 10:52:02;;;;;;;1.42;0.68;;;;;;;21.21;72.09;100730.31;20255524;29;20052;-65
2023/07/21 11:02:06;;;;;;;0.80;0.50;;;;;;;21.20;71.08;100726.75;20269985;29;20057;-65
2023/07/21 11:12:09;;;;;;;1.10;0.70;;;;;;;21.18;70.55;100720.63;20280842;29;20116;-65
2023/07/21 11:22:11;;;;;;;0.60;0.50;;;;;;;21.22;70.85;100721.19;20325249;29;20077;-65
2023/07/21 11:32:20;;;;;;;1.05;0.60;;;;;;;21.21;70.24;100709.53;20206223;29;20056;-65
2023/07/21 11:42:22;;;;;;;1.70;0.90;;;;;;;21.21;71.15;100706.81;20224779;29;20044;-65
2023/07/21 11:52:26;;;;;;;3.72;0.85;;;;;;;21.20;73.01;100696.97;20238606;29;20048;-65
2023/07/21 12:02:30;;;;;;;1.52;0.80;;;;;;;21.18;73.29;100685.44;20262308;29;20048;-65
2023/07/21 12:12:32;;;;;;;3.47;0.87;;;;;;;21.18;72.64;100682.75;20262581;29;20049;-65
2023/07/21 12:22:33;;;;;;;1.63;0.68;;;;;;;21.21;73.29;100670.75;20260922;29;20060;-65
2023/07/21 12:32:35;;;;;;;2.58;0.90;;;;;;;21.22;71.83;100676.03;20255474;29;20080;-65
2023/07/21 12:42:37;;;;;;;1.58;0.80;;;;;;;21.21;70.82;100668.91;20263602;29;20708;-65
2023/07/21 12:52:38;;;;;;;1.13;0.80;;;;;;;21.20;69.70;100667.19;20262343;29;20053;-65
2023/07/21 13:02:40;;;;;;;1.00;0.70;;;;;;;21.17;68.53;100678.34;20260403;29;20094;-65
2023/07/21 13:12:42;;;;;;;1.67;0.65;;;;;;;21.12;67.94;100673.44;20260857;29;20048;-65
2023/07/21 13:22:44;;;;;;;0.90;0.65;;;;;;;21.12;68.90;100683.41;20261203;29;20060;-65
2023/07/21 13:32:45;;;;;;;0.82;0.80;;;;;;;21.06;67.87;100736.34;20260645;29;20469;-65
2023/07/21 13:42:47;;;;;;;1.65;0.70;;;;;;;21.01;68.35;100747.63;20258980;29;20141;-65
2023/07/21 13:52:52;;;;;;;;;;;;;;;20.99;69.78;100755.06;20259889;29;20075;-65
2023/07/21 14:02:53;;;;;;;0.80;0.70;;;;;;;20.93;70.44;100758.44;20260047;29;19923;-65
2023/07/21 14:12:55;;;;;;;2.35;0.65;;;;;;;20.91;70.87;100752.31;20269430;29;20060;-68
2023/07/21 14:22:57;;;;;;;1.52;0.68;;;;;;;21.00;70.50;100740.53;20253137;29;20052;-67
2023/07/21 14:32:59;;;;;;;1.67;0.80;;;;;;;21.12;70.44;100734.84;20224854;29;20049;-67
2023/07/21 14:43:01;;;;;;;2.88;0.75;;;;;;;21.22;70.70;100732.88;20218466;29;20470;-67
2023/07/21 14:53:02;;;;;;;18.67;1.75;;;;;;;21.36;70.77;100725.97;20235152;29;20080;-69
2023/07/21 15:03:04;;;;;;;6.82;1.10;;;;;;;21.49;71.62;100730.09;20242251;29;20068;-65
2023/07/21 15:13:06;;;;;;;1.60;0.80;;;;;;;21.48;70.09;100731.94;20209103;29;20048;-62
2023/07/21 15:23:07;;;;;;;2.33;0.98;;;;;;;21.51;69.97;100747.84;20223755;29;20118;-63
2023/07/21 15:33:09;;;;;;;3.00;0.90;;;;;;;21.53;70.82;100756.66;20208961;29;20142;-70
2023/07/21 15:43:11;;;;;;;3.30;0.80;;;;;;;21.56;73.58;100774.47;20222165;29;20064;-66
2023/07/21 15:53:12;;;;;;;1.90;0.80;;;;;;;21.58;74.25;100781.41;20196092;29;20052;-66
2023/07/21 16:03:14;;;;;;;1.58;1.30;;;;;;;21.62;76.83;100797.31;20195286;29;20172;-68
2023/07/21 16:13:18;;;;;;;10.90;1.00;;;;;;;21.63;79.17;100790.88;20185575;29;20506;-65
2023/07/21 16:23:20;;;;;;;1.02;0.80;;;;;;;21.68;79.02;100789.44;20191664;29;20052;-64
2023/07/21 16:33:22;;;;;;;1.40;1.00;;;;;;;21.71;78.37;100780.13;20180968;29;20446;-64
2023/07/21 16:43:25;;;;;;;2.95;1.05;;;;;;;21.74;78.51;100774.38;20190893;29;20068;-65
2023/07/21 16:53:26;;;;;;;2.20;1.00;;;;;;;21.75;77.28;100776.06;20207454;29;20140;-65
2023/07/21 17:03:28;;;;;;;2.47;1.23;;;;;;;21.74;76.87;100774.38;20193006;29;20049;-64
2023/07/21 17:13:30;;;;;;;3.17;1.40;;;;;;;21.73;76.96;100778.09;20213995;29;20065;-64
2023/07/21 17:23:32;;;;;;;2.15;1.35;;;;;;;21.63;76.38;100780.06;20215775;29;20049;-65
2023/07/21 17:33:34;;;;;;;2.17;1.13;;;;;;;21.51;76.53;100796.59;20219601;29;20068;-64
2023/07/21 17:43:35;;;;;;;2.97;1.55;;;;;;;21.44;76.54;100795.56;20238567;29;20069;-64
2023/07/21 17:53:37;;;;;;;3.10;1.65;;;;;;;21.42;76.61;100803.00;20234641;29;20127;-65
2023/07/21 18:03:38;;;;;;;1.88;1.58;;;;;;;21.39;76.60;100797.91;20245952;29;20085;-64
2023/07/21 18:13:40;;;;;;;2.13;1.60;;;;;;;21.36;76.63;100795.53;20240524;29;20292;-63
2023/07/21 18:23:42;;;;;;;4.80;1.95;;;;;;;21.27;76.72;100800.91;20226570;29;20139;-64
2023/07/21 18:33:43;;;;;;;3.67;1.95;;;;;;;21.24;78.10;100803.94;20255418;29;20128;-64
2023/07/21 18:43:46;;;;;;;2.58;2.17;;;;;;;21.20;76.95;100818.78;20257511;29;20056;-64
2023/07/21 18:53:48;;;;;;;2.88;2.28;;;;;;;21.16;76.95;100820.13;20266839;29;20088;-63
2023/07/21 19:03:50;;;;;;;2.60;2.25;;;;;;;21.12;76.79;100825.03;20271693;29;20103;-64
2023/07/21 19:13:51;;;;;;;3.53;2.63;;;;;;;21.09;76.27;100833.47;20270377;29;20056;-64
2023/07/21 19:23:53;;;;;;;4.25;2.67;;;;;;;21.07;75.35;100848.16;20269135;29;20187;-64
2023/07/21 19:33:55;;;;;;;6.18;3.00;;;;;;;21.01;74.75;100853.19;20267659;29;20084;-64
2023/07/21 19:43:56;;;;;;;6.10;3.90;;;;;;;21.00;74.50;100864.19;20268026;29;20052;-63
2023/07/21 19:53:58;;;;;;;4.05;2.83;;;;;;;20.95;76.17;100888.16;20267507;29;20083;-64
2023/07/21 20:04:00;;;;;;;4.35;2.45;;;;;;;20.77;75.78;100871.91;20265265;29;20063;-64
2023/07/21 20:14:01;;;;;;;3.30;2.40;;;;;;;20.91;75.06;100889.47;20265576;29;20529;-63
2023/07/21 20:24:03;;;;;;;3.83;2.85;;;;;;;20.89;74.67;100897.75;20265265;29;20053;-64
2023/07/21 20:34:05;;;;;;;3.05;2.45;;;;;;;20.86;74.19;100909.72;20263197;29;20048;-63
2023/07/21 20:44:07;;;;;;;2.30;2.00;;;;;;;20.85;73.86;100915.31;20263400;29;20047;-64
2023/07/21 20:54:08;;;;;;;3.17;2.20;;;;;;;20.83;73.68;100917.31;20262752;29;20413;-64
2023/07/21 21:04:13;;;;;;;3.47;2.22;;;;;;;20.81;73.31;100922.03;20262297;29;20613;-63
2023/07/21 21:14:14;;;;;;;4.22;2.13;;;;;;;20.79;72.95;100938.41;20260024;29;20458;-64
2023/07/21 21:24:17;;;;;;;2.38;1.88;;;;;;;20.76;72.72;100954.06;20259422;29;20061;-63
2023/07/21 21:34:19;;;;;;;2.67;1.85;;;;;;;20.75;72.57;100961.34;20258751;29;20040;-63
2023/07/21 21:44:21;;;;;;;3.45;1.85;;;;;;;20.73;72.24;100957.94;20259681;29;20592;-63
2023/07/21 21:54:22;;;;;;;2.65;2.00;;;;;;;20.71;71.92;100960.78;20259290;29;20068;-63
2023/07/21 22:04:24;;;;;;;2.58;2.05;;;;;;;20.69;71.76;100970.91;20258880;29;20108;-64
2023/07/21 22:14:25;;;;;;;3.47;2.33;;;;;;;20.68;71.86;100968.38;20241476;29;20049;-64
2023/07/21 22:24:28;;;;;;;2.97;2.15;;;;;;;20.63;72.12;100966.13;20261445;29;20143;-63
2023/07/21 22:34:30;;;;;;;3.05;2.38;;;;;;;20.64;71.45;100975.94;20273292;29;20052;-63
2023/07/21 22:44:32;;;;;;;3.25;2.35;;;;;;;20.65;71.81;100974.09;20272462;29;20091;-63
2023/07/21 22:54:33;;;;;;;4.38;2.50;;;;;;;20.63;72.10;100982.34;20271697;29;20458;-64
2023/07/21 23:04:35;;;;;;;3.03;2.47;;;;;;;20.61;71.95;100987.06;20270445;29;20041;-63
2023/07/21 23:14:37;;;;;;;3.45;2.40;;;;;;;20.60;71.42;100988.06;20269419;29;20057;-63
2023/07/21 23:24:39;;;;;;;4.05;2.53;;;;;;;20.58;71.76;100984.66;20269733;29;20052;-64
2023/07/21 23:34:41;;;;;;;3.63;2.67;;;;;;;20.57;71.59;101001.91;20267746;29;20053;-63
2023/07/21 23:44:42;;;;;;;3.65;2.42;;;;;;;20.54;71.38;100994.09;20268006;29;20109;-64
2023/07/21 23:54:44;;;;;;;3.90;2.58;;;;;;;20.53;71.34;100997.78;20267098;29;20078;-63
